KEUF

Weedon Field Airport

Eufaula, Alabama, USA
METAR KEUF 150258Z AUTO 30003KT 10SM CLR 24/23 A3004 RMK AO2 SLP169 T02390233 52017
Observed Flight Rules
Aug-15 @ 02:58 UTC (37 minutes ago) Visual Flight Rules
Wind Visibility Clouds
300° at 3 knots 10 miles
  • Clear skies
Temperatures Readings
Current 24°C / 75°F
Dewpoint 23°C / 73°F
Humidity 94%
Altimeter 30.04" Hg
Pressure 1016.9 hPa
Elevation 87
METAR KEUF 150258Z AUTO 30003KT 10SM CLR 24/23 A3004 RMK AO2 SLP169 T02390233 52017
Observed Flight Rules
Aug-15 @ 02:58 UTC
(37 minutes ago)
VFR
Wind Visibility
300° at 3 knots 10 miles
Clouds
  • Clear skies
Temperature Dewpoint
24°C / 75°F 23°C / 73°F
Humidity Altimeter Pressure
94% 30.04" Hg 1016.9 hPa